createdAt,value
2022-11-29T00:00:29.553Z,71.72
2022-11-29T00:03:21.162Z,71.64
2022-11-29T00:05:53.342Z,71.76
2022-11-29T00:08:26.206Z,71.67
2022-11-29T00:10:57.696Z,71.67
2022-11-29T00:13:29.219Z,71.60
2022-11-29T00:16:05.154Z,71.51
2022-11-29T00:18:37.171Z,71.65
2022-11-29T00:21:10.427Z,71.68
2022-11-29T00:23:41.953Z,71.67
2022-11-29T00:26:13.792Z,71.62
2022-11-29T00:28:45.485Z,71.63
2022-11-29T00:31:19.667Z,71.54
2022-11-29T00:33:52.179Z,71.58
2022-11-29T00:36:23.851Z,71.53
2022-11-29T00:38:55.665Z,71.55
2022-11-29T00:41:27.579Z,71.56
2022-11-29T00:43:59.081Z,71.64
2022-11-29T00:46:30.600Z,71.53
2022-11-29T00:49:02.137Z,71.51
2022-11-29T00:51:33.797Z,71.51
2022-11-29T00:54:05.920Z,71.58
2022-11-29T00:56:37.436Z,71.50
2022-11-29T00:59:10.030Z,71.42
2022-11-29T01:01:41.709Z,71.40
2022-11-29T01:04:13.532Z,71.28
2022-11-29T01:06:45.157Z,71.32
2022-11-29T01:09:16.728Z,71.33
2022-11-29T01:11:50.058Z,71.27
2022-11-29T01:14:21.656Z,71.29
2022-11-29T01:16:53.218Z,71.30
2022-11-29T01:19:24.896Z,71.20
2022-11-29T01:21:56.537Z,71.28
2022-11-29T01:24:29.701Z,71.17
2022-11-29T01:27:01.513Z,71.28
2022-11-29T01:29:33.024Z,71.23
2022-11-29T01:32:04.837Z,71.23
2022-11-29T01:34:36.330Z,71.02
2022-11-29T01:37:08.243Z,71.09
2022-11-29T01:39:40.461Z,71.04
2022-11-29T01:42:14.476Z,71.10
2022-11-29T01:45:05.916Z,71.10
2022-11-29T01:47:43.065Z,71.11
2022-11-29T01:50:15.190Z,71.10
2022-11-29T01:52:47.245Z,71.13
2022-11-29T01:55:19.606Z,71.21
2022-11-29T01:57:51.539Z,71.23
2022-11-29T02:00:24.198Z,71.29
2022-11-29T02:02:59.919Z,71.19
2022-11-29T02:05:31.913Z,71.27
2022-11-29T02:08:04.089Z,71.13
2022-11-29T02:10:47.960Z,71.25
2022-11-29T02:13:33.824Z,71.21
2022-11-29T02:16:13.104Z,71.12
2022-11-29T02:18:54.869Z,71.16
2022-11-29T02:21:41.121Z,71.06
2022-11-29T02:24:51.071Z,71.09
2022-11-29T02:27:59.422Z,71.06
2022-11-29T02:31:05.073Z,71.10
2022-11-29T02:33:57.214Z,71.09
2022-11-29T02:36:52.195Z,71.09
2022-11-29T02:39:44.247Z,71.00
2022-11-29T02:42:54.062Z,71.14
2022-11-29T02:46:02.883Z,71.15
2022-11-29T02:48:53.157Z,71.07
2022-11-29T02:51:32.039Z,70.90
2022-11-29T02:54:10.034Z,70.94
2022-11-29T02:56:47.550Z,71.09
2022-11-29T02:59:35.176Z,71.00
2022-11-29T03:02:18.572Z,70.94
2022-11-29T03:04:56.638Z,70.86
2022-11-29T03:07:41.532Z,70.85
2022-11-29T03:10:23.825Z,70.99
2022-11-29T03:12:59.134Z,70.89
2022-11-29T03:15:34.999Z,70.89
2022-11-29T03:18:26.079Z,70.85
2022-11-29T03:21:10.873Z,70.78
2022-11-29T03:23:48.270Z,70.78
2022-11-29T03:26:25.426Z,70.79
2022-11-29T03:29:07.240Z,70.80
2022-11-29T03:31:45.637Z,70.74
2022-11-29T03:34:26.520Z,70.71
2022-11-29T03:37:03.685Z,70.76
2022-11-29T03:39:46.340Z,70.86
2022-11-29T03:42:25.609Z,70.87
2022-11-29T03:45:04.299Z,70.94
2022-11-29T03:47:43.132Z,70.96
2022-11-29T03:50:20.159Z,70.87
2022-11-29T03:52:55.991Z,70.84
2022-11-29T03:55:49.883Z,70.72
2022-11-29T03:58:48.093Z,70.84
2022-11-29T04:01:38.743Z,70.78
2022-11-29T04:04:52.233Z,70.67
2022-11-29T04:07:45.311Z,70.75
2022-11-29T04:10:42.207Z,70.80
2022-11-29T04:13:35.538Z,70.67
2022-11-29T04:16:27.642Z,70.51
2022-11-29T04:19:25.513Z,70.67
2022-11-29T04:22:20.473Z,70.73
2022-11-29T04:25:30.183Z,70.54
2022-11-29T04:28:28.716Z,70.64
2022-11-29T04:31:11.536Z,70.72
2022-11-29T04:37:27.248Z,70.49
2022-11-29T04:40:27.288Z,70.52
2022-11-29T04:43:23.589Z,70.41
2022-11-29T04:46:12.406Z,70.63
2022-11-29T04:49:03.059Z,70.44
2022-11-29T04:51:48.057Z,70.71
2022-11-29T04:54:28.161Z,70.56
2022-11-29T04:57:08.424Z,70.64
2022-11-29T04:59:45.196Z,70.64
2022-11-29T05:02:33.444Z,70.45
2022-11-29T05:05:15.248Z,70.48
2022-11-29T05:07:59.387Z,70.49
2022-11-29T05:10:36.210Z,70.46
2022-11-29T05:13:14.273Z,70.40
2022-11-29T05:16:03.821Z,70.66
2022-11-29T05:19:00.260Z,70.47
2022-11-29T05:21:43.855Z,70.62
2022-11-29T05:24:28.833Z,70.56
2022-11-29T05:27:09.910Z,70.62
2022-11-29T05:29:49.089Z,70.65
2022-11-29T05:32:32.967Z,70.77
2022-11-29T05:35:30.472Z,70.53
2022-11-29T05:38:09.965Z,70.59
2022-11-29T05:40:58.792Z,70.66
2022-11-29T05:43:57.105Z,70.48
2022-11-29T05:46:37.246Z,70.44
2022-11-29T05:49:23.052Z,70.60
2022-11-29T05:52:04.460Z,70.65
2022-11-29T05:54:42.569Z,70.78
2022-11-29T05:57:26.001Z,70.82
2022-11-29T06:00:00.333Z,70.67
2022-11-29T06:02:44.449Z,70.68
2022-11-29T06:05:25.542Z,70.88
2022-11-29T06:08:04.732Z,70.80
2022-11-29T06:10:39.978Z,70.80
2022-11-29T06:13:23.096Z,70.99
2022-11-29T06:16:25.045Z,70.73
2022-11-29T06:19:41.604Z,70.73
2022-11-29T06:22:30.403Z,70.80
2022-11-29T06:25:20.458Z,70.74
2022-11-29T06:28:10.075Z,70.75
2022-11-29T06:30:59.363Z,70.89
2022-11-29T06:33:40.815Z,71.03
2022-11-29T06:36:19.864Z,70.99
2022-11-29T06:38:52.277Z,71.24
2022-11-29T06:41:26.329Z,71.17
2022-11-29T06:43:59.349Z,71.28
2022-11-29T06:46:44.931Z,71.16
2022-11-29T06:49:25.090Z,71.36
2022-11-29T06:52:09.532Z,71.28
2022-11-29T06:55:11.605Z,71.53
2022-11-29T06:58:01.983Z,71.59
2022-11-29T07:00:44.561Z,71.52
2022-11-29T07:03:30.794Z,71.67
2022-11-29T07:06:17.143Z,71.71
2022-11-29T07:08:50.168Z,71.80
2022-11-29T07:11:23.324Z,71.81
2022-11-29T07:13:56.226Z,71.82
2022-11-29T07:16:33.040Z,71.71
2022-11-29T07:19:14.131Z,71.73
2022-11-29T07:22:04.219Z,71.74
2022-11-29T07:24:54.732Z,71.74
2022-11-29T07:27:33.789Z,71.73
2022-11-29T07:30:13.788Z,71.80
2022-11-29T07:33:00.261Z,71.83
2022-11-29T07:35:42.512Z,71.87
2022-11-29T07:38:25.018Z,72.05
2022-11-29T07:41:01.997Z,72.02
2022-11-29T07:43:46.487Z,73.24
2022-11-29T07:46:18.035Z,73.66
2022-11-29T07:48:49.614Z,72.14
2022-11-29T07:51:21.212Z,71.62
2022-11-29T07:53:52.742Z,71.49
2022-11-29T07:56:24.330Z,71.44
2022-11-29T07:58:55.873Z,71.29
2022-11-29T08:01:27.649Z,71.34
2022-11-29T08:03:59.399Z,71.18
2022-11-29T08:06:31.337Z,71.31
2022-11-29T08:09:03.672Z,71.54
2022-11-29T08:11:35.317Z,71.11
2022-11-29T08:14:06.964Z,72.03
2022-11-29T08:16:38.683Z,73.04
2022-11-29T08:19:10.692Z,74.11
2022-11-29T08:21:43.720Z,73.66
2022-11-29T08:24:15.411Z,72.39
2022-11-29T08:26:47.390Z,70.30
2022-11-29T08:29:19.972Z,69.83
2022-11-29T08:31:54.677Z,69.55
2022-11-29T08:34:27.154Z,68.24
2022-11-29T08:36:58.754Z,67.20
2022-11-29T08:39:30.491Z,67.78
2022-11-29T08:42:02.139Z,67.08
2022-11-29T08:44:33.708Z,66.55
2022-11-29T08:47:23.065Z,65.61
2022-11-29T08:50:04.041Z,65.13
2022-11-29T08:52:55.193Z,65.01
2022-11-29T08:55:29.620Z,64.20
2022-11-29T08:58:05.881Z,64.33
2022-11-29T09:00:38.705Z,63.51
2022-11-29T09:03:28.459Z,63.15
2022-11-29T09:06:00.444Z,61.87
2022-11-29T09:08:31.999Z,62.13
2022-11-29T09:11:14.326Z,62.05
2022-11-29T09:13:50.206Z,62.09
2022-11-29T09:16:25.191Z,63.73
2022-11-29T09:18:57.514Z,62.40
2022-11-29T09:21:30.962Z,61.76
2022-11-29T09:24:06.361Z,61.72
2022-11-29T09:26:40.767Z,61.70
2022-11-29T09:29:14.233Z,61.74
2022-11-29T09:31:46.197Z,62.28
2022-11-29T09:34:19.414Z,62.30
2022-11-29T09:36:50.986Z,62.67
2022-11-29T09:39:23.165Z,63.07
2022-11-29T09:42:10.023Z,63.03
2022-11-29T09:44:52.241Z,63.12
2022-11-29T09:47:39.562Z,63.61
2022-11-29T09:50:29.978Z,63.82
2022-11-29T09:53:26.089Z,63.99
2022-11-29T09:56:06.033Z,64.38
2022-11-29T09:58:44.765Z,64.63
2022-11-29T10:01:26.035Z,64.84
2022-11-29T10:04:01.938Z,65.36
2022-11-29T10:06:39.296Z,66.65
2022-11-29T10:09:22.088Z,68.10
2022-11-29T10:12:06.973Z,66.66
2022-11-29T10:14:43.886Z,65.66
2022-11-29T10:17:26.177Z,64.56
2022-11-29T10:20:04.312Z,64.22
2022-11-29T10:22:44.916Z,64.61
2022-11-29T10:25:24.280Z,64.38
2022-11-29T10:27:56.772Z,65.00
2022-11-29T10:30:28.543Z,64.42
2022-11-29T10:33:02.752Z,64.26
2022-11-29T10:35:35.744Z,63.86
2022-11-29T10:38:29.830Z,63.29
2022-11-29T10:41:05.870Z,62.68
2022-11-29T10:43:38.618Z,62.53
2022-11-29T10:46:19.350Z,62.39
2022-11-29T10:48:51.082Z,62.03
2022-11-29T10:51:22.952Z,61.54
2022-11-29T10:53:55.689Z,61.24
2022-11-29T10:56:35.454Z,60.45
2022-11-29T10:59:12.038Z,59.82
2022-11-29T11:01:45.132Z,60.24
2022-11-29T11:04:25.941Z,60.18
2022-11-29T11:07:01.252Z,60.15
2022-11-29T11:09:36.783Z,60.37
2022-11-29T11:12:20.411Z,61.57
2022-11-29T11:14:52.155Z,62.09
2022-11-29T11:17:27.201Z,61.62
2022-11-29T11:20:02.069Z,61.88
2022-11-29T11:22:36.360Z,61.00
2022-11-29T11:25:25.363Z,60.32
2022-11-29T11:27:58.723Z,60.31
2022-11-29T11:30:31.375Z,60.05
2022-11-29T11:33:20.528Z,59.46
2022-11-29T11:36:13.244Z,59.32
2022-11-29T11:38:53.723Z,59.61
2022-11-29T11:41:42.324Z,59.74
2022-11-29T11:44:46.581Z,59.56
2022-11-29T11:47:21.979Z,60.00
2022-11-29T11:50:08.038Z,60.09
2022-11-29T11:52:50.389Z,60.72
2022-11-29T11:55:33.601Z,60.49
2022-11-29T11:58:16.282Z,59.84
2022-11-29T12:01:06.758Z,59.40
2022-11-29T12:04:01.554Z,59.15
2022-11-29T12:06:41.483Z,59.61
2022-11-29T12:09:24.368Z,59.69
2022-11-29T12:12:07.197Z,59.88
2022-11-29T12:14:47.405Z,60.05
2022-11-29T12:17:27.789Z,59.94
2022-11-29T12:20:11.576Z,60.29
2022-11-29T12:22:48.733Z,60.27
2022-11-29T12:25:26.118Z,60.51
2022-11-29T12:27:57.666Z,60.61
2022-11-29T12:30:29.408Z,60.83
2022-11-29T12:33:26.271Z,60.94
2022-11-29T12:36:14.934Z,61.16
2022-11-29T12:39:04.380Z,61.03
2022-11-29T12:41:50.941Z,61.03
2022-11-29T12:44:44.567Z,61.08
2022-11-29T12:47:41.650Z,61.14
2022-11-29T12:50:34.389Z,60.91
2022-11-29T12:53:27.108Z,60.99
2022-11-29T12:56:08.378Z,60.93
2022-11-29T12:58:53.234Z,61.13
2022-11-29T13:01:31.624Z,61.17
2022-11-29T13:04:14.852Z,61.19
2022-11-29T13:06:56.695Z,61.34
2022-11-29T13:09:53.825Z,61.46
2022-11-29T13:12:35.011Z,61.49
2022-11-29T13:15:12.946Z,61.68
2022-11-29T13:17:50.769Z,61.79
2022-11-29T13:20:37.285Z,61.77
2022-11-29T13:23:18.345Z,62.03
2022-11-29T13:25:52.377Z,62.21
2022-11-29T13:28:27.755Z,62.23
2022-11-29T13:31:03.525Z,62.29
2022-11-29T13:33:43.617Z,62.38
2022-11-29T13:36:22.837Z,62.55
2022-11-29T13:39:06.608Z,62.58
2022-11-29T13:41:47.665Z,62.80
2022-11-29T13:44:27.341Z,62.95
2022-11-29T13:47:07.323Z,63.04
2022-11-29T13:49:57.180Z,63.17
2022-11-29T13:52:39.388Z,63.27
2022-11-29T13:55:29.051Z,63.59
2022-11-29T13:58:17.489Z,63.70
2022-11-29T14:00:53.550Z,63.80
2022-11-29T14:03:35.536Z,63.87
2022-11-29T14:06:11.875Z,63.96
2022-11-29T14:09:24.493Z,63.95
2022-11-29T14:12:04.167Z,64.12
2022-11-29T14:14:42.886Z,64.25
2022-11-29T14:17:35.004Z,64.41
2022-11-29T14:20:41.172Z,64.58
2022-11-29T14:23:31.582Z,64.69
2022-11-29T14:26:29.988Z,64.63
2022-11-29T14:29:01.916Z,64.78
2022-11-29T14:31:56.456Z,64.76
2022-11-29T14:34:48.103Z,64.90
2022-11-29T14:37:35.787Z,64.97
2022-11-29T14:40:22.371Z,64.86
2022-11-29T14:42:54.829Z,65.06
2022-11-29T14:45:30.437Z,65.09
2022-11-29T14:48:02.884Z,65.24
2022-11-29T14:50:40.609Z,65.17
2022-11-29T14:53:31.291Z,65.12
2022-11-29T14:56:35.056Z,65.11
2022-11-29T14:59:53.101Z,65.19
2022-11-29T15:02:32.395Z,65.13
2022-11-29T15:05:17.011Z,65.29
2022-11-29T15:07:52.560Z,65.15
2022-11-29T15:10:30.790Z,65.39
2022-11-29T15:13:05.032Z,65.39
2022-11-29T15:15:54.146Z,65.43
2022-11-29T15:18:41.673Z,65.51
2022-11-29T15:21:27.807Z,65.55
2022-11-29T15:24:10.593Z,65.47
2022-11-29T15:26:55.271Z,65.63
2022-11-29T15:29:27.789Z,65.65
2022-11-29T15:32:02.817Z,65.83
2022-11-29T15:34:40.185Z,66.09
2022-11-29T15:37:22.010Z,66.05
2022-11-29T15:40:06.448Z,66.05
2022-11-29T15:42:47.283Z,66.35
2022-11-29T15:45:32.329Z,66.35
2022-11-29T15:48:20.599Z,66.23
2022-11-29T15:51:01.741Z,66.39
2022-11-29T15:53:39.073Z,66.58
2022-11-29T15:56:17.742Z,66.37
2022-11-29T15:58:51.418Z,66.33
2022-11-29T16:01:22.301Z,66.42
2022-11-29T16:03:56.685Z,66.57
2022-11-29T16:06:33.233Z,66.62
2022-11-29T16:09:07.179Z,66.73
2022-11-29T16:11:40.388Z,66.85
2022-11-29T16:14:23.179Z,66.87
2022-11-29T16:16:56.366Z,67.06
2022-11-29T16:19:35.551Z,66.99
2022-11-29T16:22:15.392Z,67.04
2022-11-29T16:25:01.009Z,67.28
2022-11-29T16:27:35.335Z,67.51
2022-11-29T16:30:18.064Z,67.46
2022-11-29T16:32:55.022Z,67.71
2022-11-29T16:35:30.070Z,67.87
2022-11-29T16:38:04.248Z,67.87
2022-11-29T16:40:37.288Z,67.95
2022-11-29T16:43:24.016Z,68.04
2022-11-29T16:46:30.157Z,68.44
2022-11-29T16:49:04.677Z,68.36
2022-11-29T16:51:43.940Z,68.68
2022-11-29T16:54:25.094Z,68.76
2022-11-29T16:56:59.046Z,68.83
2022-11-29T16:59:32.046Z,69.06
2022-11-29T17:02:03.664Z,68.96
2022-11-29T17:04:35.404Z,68.93
2022-11-29T17:07:09.368Z,69.14
2022-11-29T17:09:41.364Z,69.19
2022-11-29T17:12:14.638Z,69.35
2022-11-29T17:14:46.360Z,69.21
2022-11-29T17:17:19.303Z,69.51
2022-11-29T17:19:50.840Z,69.41
2022-11-29T17:22:22.394Z,69.61
2022-11-29T17:24:54.511Z,69.70
2022-11-29T17:27:26.294Z,69.69
2022-11-29T17:29:57.929Z,69.64
2022-11-29T17:32:29.556Z,69.68
2022-11-29T17:35:01.057Z,69.84
2022-11-29T17:37:32.987Z,69.89
2022-11-29T17:40:07.126Z,70.00
2022-11-29T17:42:39.485Z,69.98
2022-11-29T17:45:12.552Z,70.14
2022-11-29T17:47:44.204Z,70.02
2022-11-29T17:50:16.012Z,70.28
2022-11-29T17:52:47.590Z,70.28
2022-11-29T17:55:20.786Z,70.19
2022-11-29T17:57:52.813Z,70.28
2022-11-29T18:00:27.018Z,70.60
2022-11-29T18:02:58.553Z,70.61
2022-11-29T18:05:34.527Z,70.60
2022-11-29T18:08:06.873Z,70.74
2022-11-29T18:10:38.422Z,70.66
2022-11-29T18:13:10.003Z,70.98
2022-11-29T18:15:41.489Z,70.82
2022-11-29T18:18:13.259Z,71.01
2022-11-29T18:20:44.795Z,71.06
2022-11-29T18:23:16.397Z,71.19
2022-11-29T18:25:57.617Z,71.21
2022-11-29T18:28:30.830Z,71.34
2022-11-29T18:31:06.912Z,71.43
2022-11-29T18:33:39.196Z,71.55
2022-11-29T18:36:13.723Z,71.66
2022-11-29T18:38:46.946Z,71.85
2022-11-29T18:41:21.280Z,71.83
2022-11-29T18:43:59.027Z,71.74
2022-11-29T18:46:32.700Z,72.05
2022-11-29T18:49:07.049Z,72.04
2022-11-29T18:51:39.919Z,71.96
2022-11-29T18:54:11.648Z,72.22
2022-11-29T18:56:44.224Z,72.29
2022-11-29T18:59:17.904Z,72.46
2022-11-29T19:01:50.273Z,72.52
2022-11-29T19:04:22.822Z,72.47
2022-11-29T19:06:54.426Z,72.44
2022-11-29T19:09:26.093Z,72.49
2022-11-29T19:11:57.610Z,72.46
2022-11-29T19:14:30.461Z,72.61
2022-11-29T19:17:02.327Z,72.51
2022-11-29T19:19:33.937Z,72.73
2022-11-29T19:22:05.473Z,72.92
2022-11-29T19:24:37.181Z,72.89
2022-11-29T19:27:08.718Z,72.92
2022-11-29T19:29:40.231Z,73.02
2022-11-29T19:32:11.793Z,72.92
2022-11-29T19:34:43.398Z,73.07
2022-11-29T19:37:14.888Z,73.24
2022-11-29T19:39:46.627Z,73.16
2022-11-29T19:42:18.446Z,73.20
2022-11-29T19:47:41.822Z,73.26
2022-11-29T19:50:13.797Z,73.38
2022-11-29T19:52:45.342Z,73.16
2022-11-29T19:55:18.093Z,73.31
2022-11-29T19:57:49.757Z,73.64
2022-11-29T20:00:22.987Z,73.70
2022-11-29T20:02:54.757Z,73.63
2022-11-29T20:05:27.332Z,73.88
2022-11-29T20:07:59.035Z,73.85
2022-11-29T20:10:30.848Z,73.88
2022-11-29T20:13:02.481Z,73.99
2022-11-29T20:15:34.209Z,73.87
2022-11-29T20:18:06.810Z,73.95
2022-11-29T20:20:38.356Z,73.97
2022-11-29T20:23:09.857Z,73.95
2022-11-29T20:25:41.360Z,73.81
2022-11-29T20:28:12.898Z,74.01
2022-11-29T20:30:46.494Z,73.71
2022-11-29T20:33:22.087Z,73.79
2022-11-29T20:36:00.642Z,73.72
2022-11-29T20:38:42.425Z,73.85
2022-11-29T20:41:20.520Z,73.92
2022-11-29T20:43:57.510Z,73.95
2022-11-29T20:46:29.995Z,73.78
2022-11-29T20:49:06.777Z,73.79
2022-11-29T20:51:44.944Z,74.07
2022-11-29T20:54:17.177Z,74.02
2022-11-29T20:56:48.986Z,74.08
2022-11-29T20:59:24.660Z,73.93
2022-11-29T21:01:57.596Z,74.25
2022-11-29T21:04:29.232Z,74.03
2022-11-29T21:07:00.845Z,74.19
2022-11-29T21:09:32.339Z,74.30
2022-11-29T21:12:05.071Z,74.50
2022-11-29T21:14:37.886Z,74.84
2022-11-29T21:17:11.436Z,74.72
2022-11-29T21:19:42.256Z,74.86
2022-11-29T21:22:21.813Z,74.77
2022-11-29T21:25:04.470Z,74.96
2022-11-29T21:27:37.520Z,75.08
2022-11-29T21:30:17.860Z,75.10
2022-11-29T21:32:50.743Z,75.08
2022-11-29T21:35:22.295Z,75.02
2022-11-29T21:37:55.547Z,75.07
2022-11-29T21:40:27.079Z,74.91
2022-11-29T21:42:58.880Z,75.21
2022-11-29T21:45:30.688Z,75.36
2022-11-29T21:48:03.442Z,75.27
2022-11-29T21:50:34.909Z,75.48
2022-11-29T21:53:06.374Z,75.32
2022-11-29T21:55:37.898Z,75.22
2022-11-29T21:58:09.417Z,75.20
2022-11-29T22:00:40.941Z,75.38
2022-11-29T22:03:12.428Z,75.27
2022-11-29T22:05:43.914Z,75.41
2022-11-29T22:08:15.427Z,75.48
2022-11-29T22:10:48.080Z,75.38
2022-11-29T22:13:19.651Z,75.26
2022-11-29T22:15:51.264Z,75.74
2022-11-29T22:18:27.024Z,75.82
2022-11-29T22:21:01.989Z,75.94
2022-11-29T22:23:34.128Z,75.88
2022-11-29T22:26:08.121Z,75.98
2022-11-29T22:28:39.662Z,75.84
2022-11-29T22:31:13.372Z,75.88
2022-11-29T22:33:44.937Z,75.66
2022-11-29T22:36:16.549Z,75.78
2022-11-29T22:38:48.060Z,75.78
2022-11-29T22:41:19.924Z,76.02
2022-11-29T22:43:51.446Z,76.09
2022-11-29T22:46:24.749Z,75.68
2022-11-29T22:48:58.372Z,75.89
2022-11-29T22:51:31.503Z,75.92
2022-11-29T22:54:05.465Z,75.82
2022-11-29T22:56:39.642Z,75.77
2022-11-29T22:59:11.692Z,76.02
2022-11-29T23:01:44.942Z,76.09
2022-11-29T23:04:16.466Z,76.00
2022-11-29T23:06:48.540Z,76.07
2022-11-29T23:09:22.393Z,76.14
2022-11-29T23:11:56.223Z,76.17
2022-11-29T23:14:28.031Z,75.87
2022-11-29T23:16:59.584Z,75.96
2022-11-29T23:19:31.152Z,76.17
2022-11-29T23:22:02.661Z,76.23
2022-11-29T23:24:34.169Z,76.06
2022-11-29T23:27:05.772Z,75.94
2022-11-29T23:29:37.301Z,75.97
2022-11-29T23:32:08.858Z,75.94
2022-11-29T23:34:40.411Z,75.96
2022-11-29T23:37:11.934Z,75.75
2022-11-29T23:39:43.429Z,76.18
2022-11-29T23:42:14.910Z,76.11
2022-11-29T23:44:46.591Z,76.18
2022-11-29T23:47:18.598Z,76.26
2022-11-29T23:49:50.125Z,76.45
2022-11-29T23:52:21.689Z,76.12
2022-11-29T23:54:53.160Z,76.15
2022-11-29T23:57:24.692Z,76.25
2022-11-29T23:59:56.213Z,76.25
